Southern Lily — 9VJK4 — position and weather

sailwx.info

Track history (hours):
 
Tides and Currents Weather Stations Pressure Air Temp Water Temp Dewpoint Dewpoint Depression Visibility Wind Speed Wind Dir Waves Ship Positions

Southern Lily

Last reported at 2017-Mar-24 12:19 UTC. Time now 2017-Mar-29 13:18 UTC.
Position S 36°18' E 174°58'.

Length 146 m; draft 7.6 m.

Type: Ship. MMSI: 565050000.

Date/timePositionNaut miles runAvg speedWind from/ knotsBaromVisibWave heightAir tempDewpointWater temp
2017-Mar-24 12:19S 36°18' E 174°58'810.9
2017-Mar-24 11:33S 36°26' E 174°60'8 8.3
2017-Mar-24 10:33S 36°34' E 174°58'8 8.3
2017-Mar-24 09:33S 36°41' E 174°53'8 8.4
2017-Mar-24 08:33S 36°49' E 174°50'3 2.9
2017-Mar-24 07:33S 36°51' E 174°47'0 0.0
2017-Mar-24 06:30S 36°51' E 174°47'0 0.0
2017-Mar-24 05:30S 36°51' E 174°47'0 0.0
2017-Mar-24 04:30S 36°51' E 174°47'0 0.0
2017-Mar-24 03:30S 36°51' E 174°47'0 0.0
2017-Mar-24 02:30S 36°51' E 174°47'0 0.0
2017-Mar-24 01:30S 36°51' E 174°47'0 0.0
2017-Mar-24 00:30S 36°51' E 174°47'0 0.0
2017-Mar-23 23:30S 36°51' E 174°47'0 0.0
2017-Mar-23 22:30S 36°51' E 174°47'0 0.0
2017-Mar-23 21:30S 36°51' E 174°47'0 0.0
2017-Mar-23 20:30S 36°51' E 174°47'0 0.0
2017-Mar-23 19:30S 36°51' E 174°47'0 0.0
2017-Mar-23 18:30S 36°51' E 174°47'0 0.0
2017-Mar-23 17:30S 36°51' E 174°47'0 0.0
2017-Mar-23 16:30S 36°51' E 174°47'0 0.0
2017-Mar-23 15:30S 36°51' E 174°47'0 0.0
2017-Mar-23 14:30S 36°51' E 174°47'0 0.0
2017-Mar-23 13:30S 36°51' E 174°47'0 0.0
2017-Mar-23 12:30S 36°51' E 174°47'0 0.0
2017-Mar-23 11:30S 36°51' E 174°47'0 0.0
2017-Mar-23 10:30S 36°51' E 174°47'0 0.0
2017-Mar-23 09:30S 36°51' E 174°47'0 0.0
2017-Mar-23 08:18S 36°51' E 174°47'0 0.0
2017-Mar-23 07:30S 36°51' E 174°47'0 0.0
2017-Mar-23 06:30S 36°51' E 174°47'0 0.0
2017-Mar-23 05:30S 36°51' E 174°47'0 0.0
2017-Mar-23 04:30S 36°51' E 174°47'0 0.0
2017-Mar-23 03:30S 36°51' E 174°47'0 0.0
2017-Mar-23 02:30S 36°51' E 174°47'0 0.0
2017-Mar-23 01:30S 36°51' E 174°47'0 0.0
2017-Mar-23 00:30S 36°51' E 174°47'0 0.0
2017-Mar-22 23:30S 36°51' E 174°47'0 0.0
2017-Mar-22 22:30S 36°51' E 174°47'0 0.0
2017-Mar-22 21:30S 36°51' E 174°47'0 0.0
2017-Mar-22 20:30S 36°51' E 174°47'2 2.2
2017-Mar-22 19:33S 36°50' E 174°49'8 8.5
2017-Mar-22 18:33S 36°42' E 174°53'7 6.9
2017-Mar-22 17:33S 36°36' E 174°58'1111.1
2017-Mar-22 16:33S 36°25' E 174°60'1111.4
2017-Mar-22 15:33S 36°14' E 174°58'  
Track history (hours):
 
Tides and Currents Weather Stations Pressure Air Temp Water Temp Dewpoint Dewpoint Depression Visibility Wind Speed Wind Dir Waves Ship Positions

Southern Lily

Last reported at 2017-Mar-24 12:19 UTC. Time now 2017-Mar-29 13:18 UTC.
Position S 36°18' E 174°58'.

Length 146 m; draft 7.6 m.

Type: Ship. MMSI: 565050000.

Date/timePositionNaut miles runAvg speedWind from/ knotsBaromVisibWave heightAir tempDewpointWater temp
2017-Mar-24 12:19S 36°18' E 174°58'810.9
2017-Mar-24 11:33S 36°26' E 174°60'8 8.3
2017-Mar-24 10:33S 36°34' E 174°58'8 8.3
2017-Mar-24 09:33S 36°41' E 174°53'8 8.4
2017-Mar-24 08:33S 36°49' E 174°50'3 2.9
2017-Mar-24 07:33S 36°51' E 174°47'0 0.0
2017-Mar-24 06:30S 36°51' E 174°47'0 0.0
2017-Mar-24 05:30S 36°51' E 174°47'0 0.0
2017-Mar-24 04:30S 36°51' E 174°47'0 0.0
2017-Mar-24 03:30S 36°51' E 174°47'0 0.0
2017-Mar-24 02:30S 36°51' E 174°47'0 0.0
2017-Mar-24 01:30S 36°51' E 174°47'0 0.0
2017-Mar-24 00:30S 36°51' E 174°47'0 0.0
2017-Mar-23 23:30S 36°51' E 174°47'0 0.0
2017-Mar-23 22:30S 36°51' E 174°47'0 0.0
2017-Mar-23 21:30S 36°51' E 174°47'0 0.0
2017-Mar-23 20:30S 36°51' E 174°47'0 0.0
2017-Mar-23 19:30S 36°51' E 174°47'0 0.0
2017-Mar-23 18:30S 36°51' E 174°47'0 0.0
2017-Mar-23 17:30S 36°51' E 174°47'0 0.0
2017-Mar-23 16:30S 36°51' E 174°47'0 0.0
2017-Mar-23 15:30S 36°51' E 174°47'0 0.0
2017-Mar-23 14:30S 36°51' E 174°47'0 0.0
2017-Mar-23 13:30S 36°51' E 174°47'0 0.0
2017-Mar-23 12:30S 36°51' E 174°47'0 0.0
2017-Mar-23 11:30S 36°51' E 174°47'0 0.0
2017-Mar-23 10:30S 36°51' E 174°47'0 0.0
2017-Mar-23 09:30S 36°51' E 174°47'0 0.0
2017-Mar-23 08:18S 36°51' E 174°47'0 0.0
2017-Mar-23 07:30S 36°51' E 174°47'0 0.0
2017-Mar-23 06:30S 36°51' E 174°47'0 0.0
2017-Mar-23 05:30S 36°51' E 174°47'0 0.0
2017-Mar-23 04:30S 36°51' E 174°47'0 0.0
2017-Mar-23 03:30S 36°51' E 174°47'0 0.0
2017-Mar-23 02:30S 36°51' E 174°47'0 0.0
2017-Mar-23 01:30S 36°51' E 174°47'0 0.0
2017-Mar-23 00:30S 36°51' E 174°47'0 0.0
2017-Mar-22 23:30S 36°51' E 174°47'0 0.0
2017-Mar-22 22:30S 36°51' E 174°47'0 0.0
2017-Mar-22 21:30S 36°51' E 174°47'0 0.0
2017-Mar-22 20:30S 36°51' E 174°47'2 2.2
2017-Mar-22 19:33S 36°50' E 174°49'8 8.5
2017-Mar-22 18:33S 36°42' E 174°53'7 6.9
2017-Mar-22 17:33S 36°36' E 174°58'1111.1
2017-Mar-22 16:33S 36°25' E 174°60'1111.4
2017-Mar-22 15:33S 36°14' E 174°58'  

Dump ship's entire track history